createdAt,value
2022-10-06T00:01:21.190Z,0.95
2022-10-06T00:11:21.243Z,1.2
2022-10-06T00:13:51.245Z,0.96
2022-10-06T00:16:21.334Z,0.9
2022-10-06T00:21:21.328Z,1.05
2022-10-06T00:23:51.336Z,0.87
2022-10-06T00:28:51.528Z,1.01
2022-10-06T00:33:51.437Z,0.93
2022-10-06T00:36:21.469Z,0.78
2022-10-06T00:41:21.510Z,0.63
2022-10-06T00:43:51.543Z,0.89
2022-10-06T00:46:21.665Z,0.95
2022-10-06T00:48:51.659Z,0.86
2022-10-06T00:53:51.637Z,0.86
2022-10-06T00:56:21.633Z,1.04
2022-10-06T00:58:51.724Z,1.04
2022-10-06T01:03:51.709Z,0.96
2022-10-06T01:06:21.748Z,1.03
2022-10-06T01:08:51.768Z,1.17
2022-10-06T01:13:51.803Z,0.9
2022-10-06T01:16:22.944Z,1.47
2022-10-06T01:23:51.900Z,1.02
2022-10-06T01:26:21.916Z,1.17
2022-10-06T01:28:51.942Z,1.3
2022-10-06T01:33:52.002Z,1.33
2022-10-06T01:36:22.029Z,1.19
2022-10-06T01:38:52.038Z,1.11
2022-10-06T01:43:52.099Z,0.83
2022-10-06T01:46:22.192Z,0.92
2022-10-06T01:51:22.157Z,0.9
2022-10-06T01:53:52.196Z,1.03
2022-10-06T01:56:22.217Z,0.95
2022-10-06T01:58:52.241Z,0.89
2022-10-06T02:01:22.336Z,0.84
2022-10-06T02:08:52.369Z,1.21
2022-10-06T02:16:22.432Z,1.52
2022-10-06T02:26:22.519Z,1.23
2022-10-06T02:28:52.524Z,1
2022-10-06T02:33:52.565Z,0.73
2022-10-06T02:36:22.604Z,0.73
2022-10-06T02:38:52.612Z,0.72
2022-10-06T02:46:22.754Z,1.06
2022-10-06T02:48:52.703Z,1.04
2022-10-06T02:58:52.785Z,1.06
2022-10-06T03:06:22.915Z,1.25
2022-10-06T03:08:52.894Z,1.3
2022-10-06T03:11:22.907Z,1.31
2022-10-06T03:13:52.935Z,1.2
2022-10-06T03:18:52.981Z,1.07
2022-10-06T03:21:22.997Z,0.83
2022-10-06T03:23:53.025Z,1.21
2022-10-06T03:28:53.083Z,0.97
2022-10-06T03:31:23.174Z,1.01
2022-10-06T03:33:53.126Z,1.34
2022-10-06T03:36:23.145Z,0.99
2022-10-06T03:38:53.181Z,0.77
2022-10-06T03:43:53.213Z,1.11
2022-10-06T03:46:23.295Z,1.03
2022-10-06T03:48:53.275Z,1.07
2022-10-06T03:53:53.310Z,0.83
2022-10-06T03:56:23.339Z,0.91
2022-10-06T03:58:53.370Z,0.8
2022-10-06T04:01:26.194Z,0.85
2022-10-06T04:06:23.436Z,1.32
2022-10-06T04:08:53.452Z,1.1
2022-10-06T04:11:23.466Z,1.27
2022-10-06T04:13:53.678Z,0.96
2022-10-06T04:16:23.626Z,0.66
2022-10-06T04:18:53.554Z,0.77
2022-10-06T04:21:23.579Z,0.71
2022-10-06T04:23:53.583Z,0.81
2022-10-06T04:26:23.608Z,0.67
2022-10-06T04:31:23.736Z,1.09
2022-10-06T04:33:53.692Z,1
2022-10-06T04:36:23.698Z,1.01
2022-10-06T04:41:23.763Z,0.92
2022-10-06T04:43:53.776Z,0.87
2022-10-06T04:46:41.996Z,0.71
2022-10-06T04:51:23.839Z,0.7
2022-10-06T04:53:53.869Z,0.78
2022-10-06T04:56:23.884Z,2.34
2022-10-06T04:58:53.914Z,1.76
2022-10-06T05:01:24.022Z,1.32
2022-10-06T05:06:24.005Z,1.36
2022-10-06T05:11:26.004Z,1.04
2022-10-06T05:13:54.059Z,1.08
2022-10-06T05:16:24.200Z,0.9
2022-10-06T05:18:54.103Z,0.76
2022-10-06T05:21:24.125Z,0.66
2022-10-06T05:23:54.145Z,0.7
2022-10-06T05:26:24.166Z,0.95
2022-10-06T05:28:54.209Z,0.87
2022-10-06T05:31:24.277Z,0.97
2022-10-06T05:33:54.250Z,1.03
2022-10-06T05:36:24.295Z,0.87
2022-10-06T05:38:54.293Z,0.99
2022-10-06T05:41:24.320Z,1.19
2022-10-06T05:43:54.329Z,1.09
2022-10-06T05:46:24.387Z,0.9
2022-10-06T05:48:54.399Z,0.94
2022-10-06T05:51:29.342Z,1.02
2022-10-06T05:53:54.430Z,0.94
2022-10-06T05:56:24.489Z,0.9
2022-10-06T05:58:54.475Z,1.04
2022-10-06T06:01:24.569Z,1.01
2022-10-06T06:03:54.551Z,0.79
2022-10-06T06:06:24.557Z,0.84
2022-10-06T06:08:54.565Z,0.64
2022-10-06T06:11:24.748Z,0.95
2022-10-06T06:13:54.635Z,0.77
2022-10-06T06:16:24.808Z,0.85
2022-10-06T06:21:24.701Z,0.82
2022-10-06T06:23:54.725Z,0.79
2022-10-06T06:26:24.739Z,1.12
2022-10-06T06:28:54.839Z,1.1
2022-10-06T06:31:24.796Z,1.43
2022-10-06T06:33:54.859Z,1.1
2022-10-06T06:38:54.866Z,0.91
2022-10-06T06:43:54.901Z,0.87
2022-10-06T06:46:25.199Z,0.94
2022-10-06T06:48:54.942Z,0.91
2022-10-06T06:53:54.993Z,1.06
2022-10-06T06:58:55.046Z,1.06
2022-10-06T07:01:25.178Z,1.02
2022-10-06T07:03:57.988Z,0.99
2022-10-06T07:06:27.818Z,0.84
2022-10-06T07:08:55.154Z,0.78
2022-10-06T07:11:25.144Z,0.67
2022-10-06T07:13:55.174Z,1.13
2022-10-06T07:16:25.213Z,1.35
2022-10-06T07:18:55.227Z,1.37
2022-10-06T07:21:25.241Z,1.35
2022-10-06T07:23:55.295Z,1.08
2022-10-06T07:28:55.324Z,0.81
2022-10-06T07:31:25.386Z,0.85
2022-10-06T07:36:25.403Z,0.72
2022-10-06T07:38:55.410Z,0.76
2022-10-06T07:41:25.425Z,0.97
2022-10-06T07:46:25.595Z,1.12
2022-10-06T07:48:55.493Z,0.95
2022-10-06T07:53:55.550Z,1.18
2022-10-06T07:58:55.773Z,1.4
2022-10-06T08:01:25.667Z,1
2022-10-06T08:03:55.669Z,0.84
2022-10-06T08:06:25.675Z,1.2
2022-10-06T08:11:25.724Z,0.89
2022-10-06T08:13:55.736Z,0.76
2022-10-06T08:16:25.909Z,0.8
2022-10-06T08:21:25.820Z,0.95
2022-10-06T08:23:55.843Z,0.77
2022-10-06T08:26:25.867Z,0.77
2022-10-06T08:31:25.992Z,1.17
2022-10-06T08:36:30.617Z,0.78
2022-10-06T08:38:55.972Z,0.89
2022-10-06T08:41:26.012Z,0.83
2022-10-06T08:46:26.046Z,0.8
2022-10-06T08:48:56.092Z,1.44
2022-10-06T08:51:26.089Z,1.31
2022-10-06T08:53:56.127Z,0.99
2022-10-06T09:01:26.330Z,0.71
2022-10-06T09:06:26.213Z,0.71
2022-10-06T09:08:56.250Z,0.74
2022-10-06T09:11:26.270Z,0.82
2022-10-06T09:13:56.310Z,1.05
2022-10-06T09:16:26.376Z,0.91
2022-10-06T09:56:26.881Z,1.58
2022-10-06T09:58:56.739Z,1.36
2022-10-06T10:01:26.892Z,1.52
2022-10-06T10:04:18.777Z,1.21
2022-10-06T10:06:26.793Z,1.05
2022-10-06T10:08:56.825Z,0.96
2022-10-06T10:13:56.850Z,0.76
2022-10-06T10:16:26.958Z,0.81
2022-10-06T10:23:56.955Z,1
2022-10-06T10:26:26.971Z,0.73
2022-10-06T10:34:12.025Z,0.74
2022-10-06T10:36:27.060Z,0.62
2022-10-06T10:38:57.106Z,1.19
2022-10-06T10:46:27.235Z,1.3
2022-10-06T10:48:57.184Z,1.18
2022-10-06T10:51:27.211Z,1.94
2022-10-06T10:58:57.265Z,1.09
2022-10-06T11:01:27.313Z,0.93
2022-10-06T11:08:57.365Z,0.88
2022-10-06T11:13:57.426Z,0.75
2022-10-06T11:26:27.538Z,1.05
2022-10-06T11:33:57.621Z,0.9
2022-10-06T11:36:27.621Z,1.77
2022-10-06T11:38:57.636Z,1.27
2022-10-06T11:41:27.674Z,1.07
2022-10-06T11:48:57.738Z,0.81
2022-10-06T11:51:27.777Z,0.73
2022-10-06T11:58:57.841Z,0.89
2022-10-06T12:01:28.019Z,0.69
2022-10-06T12:03:57.877Z,0.75
2022-10-06T12:06:27.900Z,1.08
2022-10-06T12:08:57.919Z,1
2022-10-06T12:11:27.957Z,0.88
2022-10-06T12:15:54.374Z,0.75
2022-10-06T12:17:10.646Z,0.78
2022-10-06T12:21:28.050Z,0.91
2022-10-06T12:28:58.110Z,0.9
2022-10-06T12:31:28.290Z,0.82
2022-10-06T12:33:58.175Z,0.62
2022-10-06T12:36:28.173Z,0.88
2022-10-06T12:41:28.222Z,1.06
2022-10-06T12:43:58.254Z,0.77
2022-10-06T12:46:28.370Z,0.62
2022-10-06T12:51:28.420Z,0.81
2022-10-06T12:58:58.387Z,0.84
2022-10-06T13:03:58.498Z,0.59
2022-10-06T13:06:28.471Z,0.85
2022-10-06T13:08:58.505Z,0.73
2022-10-06T13:11:28.528Z,0.74
2022-10-06T13:16:28.612Z,0.82
2022-10-06T13:18:58.604Z,1.45
2022-10-06T13:26:28.659Z,1.75
2022-10-06T13:28:58.684Z,1.19
2022-10-06T13:31:28.701Z,0.8
2022-10-06T13:33:58.749Z,0.67
2022-10-06T13:36:28.748Z,0.78
2022-10-06T13:38:58.773Z,0.73
2022-10-06T13:41:28.807Z,0.85
2022-10-06T13:43:58.838Z,0.73
2022-10-06T13:46:28.955Z,0.58
2022-10-06T13:48:58.864Z,0.61
2022-10-06T13:51:28.903Z,0.93
2022-10-06T13:53:58.905Z,0.96
2022-10-06T13:58:58.973Z,0.84
2022-10-06T14:01:29.040Z,0.89
2022-10-06T14:03:58.994Z,0.72
2022-10-06T14:06:29.037Z,0.57
2022-10-06T14:08:59.045Z,0.62
2022-10-06T14:11:29.087Z,0.7
2022-10-06T14:13:59.104Z,0.68
2022-10-06T14:16:29.117Z,0.92
2022-10-06T14:18:59.144Z,0.8
2022-10-06T14:21:29.160Z,0.73
2022-10-06T14:23:59.198Z,0.71
2022-10-06T14:26:29.220Z,0.57
2022-10-06T14:28:59.252Z,0.96
2022-10-06T14:31:29.324Z,0.84
2022-10-06T14:33:59.297Z,0.78
2022-10-06T14:36:29.310Z,0.99
2022-10-06T14:38:59.333Z,0.93
2022-10-06T14:41:29.365Z,0.8
2022-10-06T14:43:59.381Z,0.77
2022-10-06T14:46:29.461Z,0.64
2022-10-06T14:48:59.581Z,0.75
2022-10-06T14:51:31.043Z,0.76
2022-10-06T14:53:59.456Z,1.2
2022-10-06T14:58:59.520Z,1.21
2022-10-06T15:01:29.551Z,0.9
2022-10-06T15:03:59.672Z,0.81
2022-10-06T15:08:59.606Z,0.87
2022-10-06T15:11:29.643Z,0.79
2022-10-06T15:13:59.658Z,0.82
2022-10-06T15:16:29.679Z,0.7
2022-10-06T15:18:59.708Z,0.78
2022-10-06T15:21:29.730Z,0.87
2022-10-06T15:23:59.775Z,0.75
2022-10-06T15:26:29.765Z,0.93
2022-10-06T15:28:59.785Z,0.97
2022-10-06T15:31:29.898Z,1.33
2022-10-06T15:38:59.896Z,1.2
2022-10-06T15:41:29.926Z,1.19
2022-10-06T15:43:59.944Z,1.02
2022-10-06T15:49:00.012Z,0.79
2022-10-06T15:51:30.027Z,0.69
2022-10-06T15:54:00.031Z,0.76
2022-10-06T15:56:37.109Z,0.79
2022-10-06T15:59:00.103Z,0.69
2022-10-06T16:01:30.139Z,0.83
2022-10-06T16:04:00.159Z,0.77
2022-10-06T16:06:30.155Z,0.95
2022-10-06T16:09:00.195Z,0.95
2022-10-06T16:11:30.481Z,0.74
2022-10-06T16:14:00.256Z,0.94
2022-10-06T16:16:30.286Z,1.05
2022-10-06T16:19:00.294Z,1.26
2022-10-06T16:21:30.339Z,1.11
2022-10-06T16:24:00.328Z,0.98
2022-10-06T16:29:00.385Z,1.29
2022-10-06T16:31:30.444Z,1.4
2022-10-06T16:34:00.419Z,1.05
2022-10-06T16:39:00.466Z,1.17
2022-10-06T16:41:30.495Z,1.07
2022-10-06T16:44:00.519Z,1
2022-10-06T16:46:30.585Z,0.98
2022-10-06T16:49:00.552Z,1.21
2022-10-06T16:51:30.730Z,1.15
2022-10-06T16:54:00.617Z,1.11
2022-10-06T16:59:00.644Z,1.31
2022-10-06T17:04:00.730Z,1.34
2022-10-06T17:06:30.725Z,1.32
2022-10-06T17:14:00.799Z,1.59
2022-10-06T17:16:30.897Z,1.35
2022-10-06T17:21:45.643Z,1.62
2022-10-06T17:24:00.874Z,2.08
2022-10-06T17:26:30.932Z,2.02
2022-10-06T17:29:00.934Z,1.57
2022-10-06T17:34:01.007Z,1.53
2022-10-06T17:36:31.005Z,1.35
2022-10-06T17:39:01.042Z,1.55
2022-10-06T17:41:31.061Z,1.41
2022-10-06T17:44:01.089Z,1.83
2022-10-06T17:49:01.120Z,1.45
2022-10-06T17:51:31.152Z,1.38
2022-10-06T17:54:01.193Z,1.23
2022-10-06T17:59:01.202Z,1.8
2022-10-06T18:01:31.316Z,1.78
2022-10-06T18:04:01.280Z,1.76
2022-10-06T18:11:31.328Z,1.98
2022-10-06T18:19:01.409Z,1.64
2022-10-06T18:21:31.438Z,2.04
2022-10-06T18:24:01.483Z,2.18
2022-10-06T18:26:31.485Z,2.08
2022-10-06T18:29:01.623Z,1.9
2022-10-06T18:31:31.599Z,1.62
2022-10-06T18:41:31.624Z,2.1
2022-10-06T18:44:01.655Z,2.21
2022-10-06T18:46:31.804Z,2.17
2022-10-06T18:51:31.739Z,1.93
2022-10-06T18:54:01.736Z,1.67
2022-10-06T18:59:01.822Z,2.1
2022-10-06T19:04:01.829Z,2.01
2022-10-06T19:06:31.857Z,2.34
2022-10-06T19:11:31.910Z,2.35
2022-10-06T19:14:01.943Z,2.04
2022-10-06T19:16:32.023Z,1.97
2022-10-06T19:19:01.962Z,2.25
2022-10-06T19:24:02.024Z,2.18
2022-10-06T19:26:32.041Z,2.08
2022-10-06T19:31:32.088Z,2.03
2022-10-06T19:39:02.168Z,1.9
2022-10-06T19:41:32.200Z,2.27
2022-10-06T19:46:32.239Z,2.03
2022-10-06T19:49:02.264Z,1.83
2022-10-06T19:51:32.282Z,1.61
2022-10-06T19:56:32.325Z,1.71
2022-10-06T19:59:02.372Z,1.68
2022-10-06T20:01:32.454Z,2.04
2022-10-06T20:04:02.492Z,2.83
2022-10-06T20:09:02.452Z,4.08
2022-10-06T20:11:32.477Z,4.07
2022-10-06T20:16:32.579Z,3.08
2022-10-06T20:19:02.534Z,2.71
2022-10-06T20:21:32.602Z,2.32
2022-10-06T20:24:02.605Z,1.92
2022-10-06T20:26:32.629Z,1.6
2022-10-06T20:31:32.677Z,1.4
2022-10-06T20:34:02.706Z,1.39
2022-10-06T20:36:32.704Z,1.25
2022-10-06T20:41:32.794Z,1.72
2022-10-06T20:44:02.780Z,1.66
2022-10-06T20:46:32.839Z,1.51
2022-10-06T20:54:02.883Z,1.39
2022-10-06T20:56:32.923Z,1.6
2022-10-06T20:59:02.963Z,1.84
2022-10-06T21:01:33.043Z,1.84
2022-10-06T21:04:03.016Z,1.48
2022-10-06T21:06:32.996Z,1.2
2022-10-06T21:09:03.020Z,1.43
2022-10-06T21:11:33.060Z,1.47
2022-10-06T21:14:03.106Z,1.38
2022-10-06T21:16:33.134Z,1.47
2022-10-06T21:19:03.160Z,1.74
2022-10-06T21:21:33.137Z,1.86
2022-10-06T21:24:03.232Z,1.61
2022-10-06T21:26:33.192Z,1.59
2022-10-06T21:29:03.247Z,1.36
2022-10-06T21:31:33.502Z,1.73
2022-10-06T21:34:03.258Z,1.73
2022-10-06T21:36:33.291Z,1.57
2022-10-06T21:41:33.402Z,1.41
2022-10-06T21:44:03.389Z,1.24
2022-10-06T21:46:33.495Z,1.5
2022-10-06T21:49:03.437Z,1.41
2022-10-06T21:51:33.444Z,1.7
2022-10-06T21:54:03.636Z,1.93
2022-10-06T21:56:33.468Z,2.47
2022-10-06T21:59:03.527Z,2.11
2022-10-06T22:01:33.627Z,1.66
2022-10-06T22:04:03.532Z,2.13
2022-10-06T22:06:33.558Z,2.02
2022-10-06T22:09:03.624Z,1.93
2022-10-06T22:11:33.639Z,1.86
2022-10-06T22:14:03.626Z,1.66
2022-10-06T22:19:03.676Z,1.34
2022-10-06T22:21:33.701Z,1.09
2022-10-06T22:24:03.718Z,1.22
2022-10-06T22:26:33.804Z,1.03
2022-10-06T22:31:33.921Z,1.46
2022-10-06T22:34:03.815Z,1.43
2022-10-06T22:41:33.915Z,1.12
2022-10-06T22:46:34.123Z,1.19
2022-10-06T22:51:33.974Z,1.48
2022-10-06T22:54:03.997Z,1.4
2022-10-06T23:01:34.143Z,0.99
2022-10-06T23:04:04.101Z,1.37
2022-10-06T23:06:34.121Z,1.24
2022-10-06T23:09:04.148Z,1.5
2022-10-06T23:19:04.273Z,1.3
2022-10-06T23:21:34.290Z,1.64
2022-10-06T23:29:04.366Z,1.27
2022-10-06T23:31:34.431Z,1.53
2022-10-06T23:34:04.429Z,1.39
2022-10-06T23:36:34.400Z,1.35
2022-10-06T23:39:04.431Z,1.29
2022-10-06T23:41:34.626Z,1.53
2022-10-06T23:44:04.504Z,1.31
2022-10-06T23:46:34.496Z,1.42
2022-10-06T23:49:04.552Z,1.65
2022-10-06T23:51:34.576Z,1.56
2022-10-06T23:54:04.612Z,1.71
2022-10-06T23:56:34.591Z,1.7
